Time,TemperatureF,DewpointF,PressureIn,WindDirection,WindDirectionDegrees,WindSpeedMPH,WindSpeedGustMPH,Humidity,HourlyPrecipIn,Conditions,Clouds,dailyrainin,SoftwareType,DateUTC
2013-02-28 00:00:00,25.9,20.5,30.33,NW,315,0.0,4.4,80,0.00,,,0.00,WUHU21636XXSP,2013-02-28 06:00:00,
2013-02-28 00:10:00,25.9,20.5,30.33,WNW,292,0.8,2.6,80,0.00,,,0.00,WUHU21636XXSP,2013-02-28 06:10:00,
2013-02-28 00:20:00,26.2,20.8,30.32,NW,315,0.0,0.8,80,0.00,,,0.00,WUHU21636XXSP,2013-02-28 06:20:00,
2013-02-28 00:30:00,25.7,19.9,30.33,WNW,292,0.0,3.3,79,0.00,,,0.00,WUHU21636XXSP,2013-02-28 06:30:00,
2013-02-28 00:40:00,25.7,19.9,30.33,NW,315,0.0,3.1,80,0.00,,,0.00,WUHU21636XXSP,2013-02-28 06:40:00,
2013-02-28 00:50:00,26.2,20.8,30.33,NW,315,0.0,2.6,80,0.00,,,0.00,WUHU21636XXSP,2013-02-28 06:50:00,
2013-02-28 01:00:00,25.9,20.1,30.33,NW,315,0.0,0.0,79,0.00,,,0.00,WUHU21636XXSP,2013-02-28 07:00:00,
2013-02-28 01:10:00,25.9,20.1,30.33,WNW,292,0.0,1.3,79,0.00,,,0.00,WUHU21636XXSP,2013-02-28 07:10:00,
2013-02-28 01:20:00,25.9,20.1,30.34,WNW,292,0.0,0.0,79,0.00,,,0.00,WUHU21636XXSP,2013-02-28 07:20:00,
2013-02-28 01:30:00,25.5,19.6,30.34,West,270,2.0,2.0,78,0.00,,,0.00,WUHU21636XXSP,2013-02-28 07:30:00,
2013-02-28 01:40:00,24.4,18.9,30.34,WNW,292,4.0,5.1,79,0.00,,,0.00,WUHU21636XXSP,2013-02-28 07:40:00,
2013-02-28 01:50:00,24.1,18.9,30.34,WNW,292,2.6,9.6,80,0.00,,,0.00,WUHU21636XXSP,2013-02-28 07:50:00,
2013-02-28 02:00:00,23.9,18.7,30.34,NW,315,0.0,3.8,80,0.00,,,0.00,WUHU21636XXSP,2013-02-28 08:00:00,
2013-02-28 02:10:00,23.9,18.7,30.34,WNW,292,1.3,6.2,80,0.00,,,0.00,WUHU21636XXSP,2013-02-28 08:10:00,
2013-02-28 02:20:00,24.1,19.0,30.35,NW,315,1.5,3.5,80,0.00,,,0.00,WUHU21636XXSP,2013-02-28 08:20:00,
2013-02-28 02:30:00,23.9,18.9,30.34,West,270,0.0,1.5,80,0.00,,,0.00,WUHU21636XXSP,2013-02-28 08:30:00,
2013-02-28 02:40:00,24.1,18.9,30.35,WNW,292,1.3,1.3,81,0.00,,,0.00,WUHU21636XXSP,2013-02-28 08:40:00,
2013-02-28 02:50:00,24.3,19.2,30.35,WNW,292,0.0,3.1,81,0.00,,,0.00,WUHU21636XXSP,2013-02-28 08:50:00,
2013-02-28 03:00:00,24.3,19.0,30.35,NW,315,1.5,4.0,80,0.00,,,0.00,WUHU21636XXSP,2013-02-28 09:00:00,
2013-02-28 03:10:00,24.1,18.9,30.35,West,270,0.0,3.5,80,0.00,,,0.00,WUHU21636XXSP,2013-02-28 09:10:00,
2013-02-28 03:20:00,23.9,18.7,30.35,WNW,292,4.2,4.2,80,0.00,,,0.00,WUHU21636XXSP,2013-02-28 09:20:00,
2013-02-28 03:30:00,23.7,18.5,30.35,NW,315,4.2,5.1,80,0.00,,,0.00,WUHU21636XXSP,2013-02-28 09:30:00,
2013-02-28 03:40:00,23.7,18.5,30.34,NW,315,0.0,4.4,80,0.00,,,0.00,WUHU21636XXSP,2013-02-28 09:40:00,
2013-02-28 03:50:00,23.7,18.5,30.34,NW,315,0.4,3.1,80,0.00,,,0.00,WUHU21636XXSP,2013-02-28 09:50:00,
2013-02-28 04:00:00,23.7,18.5,30.34,NW,315,0.0,0.0,80,0.00,,,0.00,WUHU21636XXSP,2013-02-28 10:00:00,
2013-02-28 04:10:00,23.7,18.5,30.34,NW,315,0.0,0.0,80,0.00,,,0.00,WUHU21636XXSP,2013-02-28 10:10:00,
2013-02-28 04:20:00,23.5,18.0,30.34,WNW,292,0.0,0.6,79,0.00,,,0.00,WUHU21636XXSP,2013-02-28 10:20:00,
2013-02-28 04:30:00,23.2,18.0,30.34,WNW,292,0.4,0.4,80,0.00,,,0.00,WUHU21636XXSP,2013-02-28 10:30:00,
2013-02-28 04:40:00,23.2,18.0,30.34,WNW,292,0.4,1.3,80,0.00,,,0.00,WUHU21636XXSP,2013-02-28 10:40:00,
2013-02-28 04:50:00,23.0,17.8,30.34,WNW,292,0.6,4.0,80,0.00,,,0.00,WUHU21636XXSP,2013-02-28 10:50:00,
2013-02-28 05:00:00,22.8,17.6,30.34,WNW,292,1.1,2.9,80,0.00,,,0.00,WUHU21636XXSP,2013-02-28 11:00:00,
2013-02-28 05:10:00,23.2,18.0,30.34,WNW,292,0.0,3.5,80,0.00,,,0.00,WUHU21636XXSP,2013-02-28 11:10:00,
2013-02-28 05:20:00,22.8,17.2,30.34,West,270,2.4,2.4,79,0.00,,,0.00,WUHU21636XXSP,2013-02-28 11:20:00,
2013-02-28 05:30:00,22.3,17.1,30.34,WNW,292,5.5,5.5,80,0.00,,,0.00,WUHU21636XXSP,2013-02-28 11:30:00,
2013-02-28 05:40:00,22.3,17.2,30.34,WNW,292,4.6,7.8,81,0.00,,,0.00,WUHU21636XXSP,2013-02-28 11:40:00,
2013-02-28 05:50:00,22.3,17.2,30.34,WNW,292,5.1,6.0,81,0.00,,,0.00,WUHU21636XXSP,2013-02-28 11:50:00,
2013-02-28 06:00:00,22.3,17.1,30.35,West,270,0.0,5.1,80,0.00,,,0.00,WUHU21636XXSP,2013-02-28 12:00:00,
2013-02-28 06:10:00,21.9,16.3,30.35,West,270,0.6,0.6,79,0.00,,,0.00,WUHU21636XXSP,2013-02-28 12:10:00,
2013-02-28 06:20:00,21.9,17.2,30.35,WNW,292,2.0,2.0,83,0.00,,,0.00,WUHU21636XXSP,2013-02-28 12:20:00,
2013-02-28 06:30:00,22.6,18.7,30.35,NW,315,2.0,6.4,85,0.00,,,0.00,WUHU21636XXSP,2013-02-28 12:30:00,
2013-02-28 06:40:00,22.3,17.8,30.35,WNW,292,2.6,3.8,83,0.00,,,0.00,WUHU21636XXSP,2013-02-28 12:40:00,
2013-02-28 06:50:00,22.3,17.2,30.35,WNW,292,5.8,8.0,81,0.00,,,0.00,WUHU21636XXSP,2013-02-28 12:50:00,
2013-02-28 07:00:00,22.3,17.2,30.35,WNW,292,4.2,5.8,81,0.00,,,0.00,WUHU21636XXSP,2013-02-28 13:00:00,
2013-02-28 07:10:00,22.1,16.5,30.36,West,270,3.3,10.0,79,0.00,,,0.00,WUHU21636XXSP,2013-02-28 13:10:00,
2013-02-28 07:20:00,21.7,16.2,30.36,West,270,3.3,8.2,79,0.00,,,0.00,WUHU21636XXSP,2013-02-28 13:20:00,
2013-02-28 07:30:00,21.4,15.8,30.35,West,270,2.0,7.8,79,0.00,,,0.00,WUHU21636XXSP,2013-02-28 13:30:00,
2013-02-28 07:40:00,21.4,15.8,30.35,WNW,292,2.4,7.3,79,0.00,,,0.00,WUHU21636XXSP,2013-02-28 13:40:00,
2013-02-28 07:50:00,21.2,15.6,30.35,WNW,292,1.7,8.9,79,0.00,,,0.00,WUHU21636XXSP,2013-02-28 13:50:00,
2013-02-28 08:00:00,21.2,15.6,30.36,West,270,2.6,2.6,79,0.00,,,0.00,WUHU21636XXSP,2013-02-28 14:00:00,
2013-02-28 08:10:00,21.2,15.3,30.36,NW,315,0.0,2.6,78,0.00,,,0.00,WUHU21636XXSP,2013-02-28 14:10:00,
2013-02-28 08:20:00,21.2,15.6,30.37,WNW,292,1.7,3.3,79,0.00,,,0.00,WUHU21636XXSP,2013-02-28 14:20:00,
2013-02-28 08:30:00,21.4,15.4,30.37,WNW,292,4.0,8.7,78,0.00,,,0.00,WUHU21636XXSP,2013-02-28 14:30:00,
2013-02-28 08:40:00,21.4,15.4,30.37,WNW,292,4.2,6.7,78,0.00,,,0.00,WUHU21636XXSP,2013-02-28 14:40:00,
2013-02-28 08:50:00,21.6,15.6,30.37,NW,315,1.5,8.5,78,0.00,,,0.00,WUHU21636XXSP,2013-02-28 14:50:00,
2013-02-28 09:00:00,21.7,15.8,30.37,NW,315,1.7,7.8,78,0.00,,,0.00,WUHU21636XXSP,2013-02-28 15:00:00,
2013-02-28 09:10:00,21.7,15.8,30.38,WNW,292,0.0,2.6,77,0.00,,,0.00,WUHU21636XXSP,2013-02-28 15:10:00,
2013-02-28 09:20:00,21.9,15.6,30.38,NW,315,2.6,4.6,77,0.00,,,0.00,WUHU21636XXSP,2013-02-28 15:20:00,
2013-02-28 09:30:00,22.1,15.8,30.38,WNW,292,1.3,4.4,77,0.00,,,0.00,WUHU21636XXSP,2013-02-28 15:30:00,
2013-02-28 09:40:00,22.6,16.2,30.38,WNW,292,0.0,1.3,76,0.00,,,0.00,WUHU21636XXSP,2013-02-28 15:40:00,
2013-02-28 09:50:00,22.8,16.3,30.38,WNW,292,0.6,5.3,76,0.00,,,0.00,WUHU21636XXSP,2013-02-28 15:50:00,
2013-02-28 10:00:00,23.4,16.9,30.38,WNW,292,1.5,4.0,76,0.00,,,0.00,WUHU21636XXSP,2013-02-28 16:00:00,
2013-02-28 10:10:00,24.3,17.4,30.38,WNW,292,5.5,9.1,75,0.00,,,0.00,WUHU21636XXSP,2013-02-28 16:10:00,
2013-02-28 10:20:00,25.0,17.8,30.37,WNW,292,1.3,5.5,74,0.00,,,0.00,WUHU21636XXSP,2013-02-28 16:20:00,
2013-02-28 10:30:00,25.7,18.5,30.37,WNW,292,3.1,3.1,74,0.00,,,0.00,WUHU21636XXSP,2013-02-28 16:30:00,
2013-02-28 10:40:00,26.4,18.9,30.37,WNW,292,0.0,3.1,73,0.00,,,0.00,WUHU21636XXSP,2013-02-28 16:40:00,
2013-02-28 10:50:00,27.3,19.8,30.37,WNW,292,0.0,5.1,73,0.00,,,0.00,WUHU21636XXSP,2013-02-28 16:50:00,
2013-02-28 11:00:00,27.7,19.8,30.37,WNW,292,0.0,0.4,73,0.00,,,0.00,WUHU21636XXSP,2013-02-28 17:00:00,
2013-02-28 11:10:00,28.8,20.1,30.37,West,270,0.0,2.6,70,0.00,,,0.00,WUHU21636XXSP,2013-02-28 17:10:00,
2013-02-28 11:20:00,29.3,20.7,30.37,West,270,2.0,3.1,70,0.00,,,0.00,WUHU21636XXSP,2013-02-28 17:20:00,
2013-02-28 11:30:00,30.0,21.4,30.37,WNW,292,2.4,3.5,70,0.00,,,0.00,WUHU21636XXSP,2013-02-28 17:30:00,
2013-02-28 11:40:00,30.7,21.7,30.37,West,270,3.8,8.0,69,0.00,,,0.00,WUHU21636XXSP,2013-02-28 17:40:00,
2013-02-28 11:50:00,31.1,22.1,30.37,WNW,292,2.4,7.8,69,0.00,,,0.00,WUHU21636XXSP,2013-02-28 17:50:00,
2013-02-28 12:00:00,31.6,22.6,30.37,WNW,292,5.1,6.9,69,0.00,,,0.00,WUHU21636XXSP,2013-02-28 18:00:00,
2013-02-28 12:10:00,32.0,22.6,30.37,WNW,292,2.9,5.1,68,0.00,,,0.00,WUHU21636XXSP,2013-02-28 18:10:00,
2013-02-28 12:20:00,32.7,23.2,30.36,WNW,292,0.4,2.9,68,0.00,,,0.00,WUHU21636XXSP,2013-02-28 18:20:00,
2013-02-28 12:30:00,33.4,23.5,30.36,West,270,1.7,4.0,67,0.00,,,0.00,WUHU21636XXSP,2013-02-28 18:30:00,
2013-02-28 12:40:00,34.3,24.8,30.36,WNW,292,4.6,4.6,68,0.00,,,0.00,WUHU21636XXSP,2013-02-28 18:40:00,
2013-02-28 12:50:00,34.9,24.3,30.35,West,270,2.9,4.6,65,0.00,,,0.00,WUHU21636XXSP,2013-02-28 18:50:00,
2013-02-28 13:00:00,35.8,25.0,30.35,WNW,292,3.5,3.5,65,0.00,,,0.00,WUHU21636XXSP,2013-02-28 19:00:00,
2013-02-28 13:10:00,36.7,25.5,30.35,West,270,0.0,3.5,64,0.00,,,0.00,WUHU21636XXSP,2013-02-28 19:10:00,
2013-02-28 13:20:00,37.4,25.5,30.35,WNW,292,0.0,9.3,62,0.00,,,0.00,WUHU21636XXSP,2013-02-28 19:20:00,
2013-02-28 13:30:00,37.9,25.9,30.35,West,270,4.2,4.2,62,0.00,,,0.00,WUHU21636XXSP,2013-02-28 19:30:00,
2013-02-28 13:40:00,38.5,26.1,30.34,West,270,0.8,7.6,61,0.00,,,0.00,WUHU21636XXSP,2013-02-28 19:40:00,
2013-02-28 13:50:00,39.4,27.0,30.34,NW,315,3.8,8.0,61,0.00,,,0.00,WUHU21636XXSP,2013-02-28 19:50:00,
2013-02-28 14:00:00,39.7,27.0,30.33,West,270,0.0,3.8,60,0.00,,,0.00,WUHU21636XXSP,2013-02-28 20:00:00,
2013-02-28 14:11:00,40.3,27.0,30.33,WNW,292,5.8,9.8,59,0.00,,,0.00,WUHU21636XXSP,2013-02-28 20:11:00,
2013-02-28 14:21:00,40.8,26.2,30.32,WNW,292,2.0,5.8,56,0.00,,,0.00,WUHU21636XXSP,2013-02-28 20:21:00,
2013-02-28 14:31:00,41.7,27.0,30.32,West,270,3.3,6.2,56,0.00,,,0.00,WUHU21636XXSP,2013-02-28 20:31:00,
2013-02-28 14:41:00,41.9,26.2,30.32,West,270,0.0,3.8,54,0.00,,,0.00,WUHU21636XXSP,2013-02-28 20:41:00,
2013-02-28 14:51:00,42.3,26.2,30.32,WNW,292,2.0,7.3,55,0.00,,,0.00,WUHU21636XXSP,2013-02-28 20:51:00,
2013-02-28 15:01:00,42.4,26.8,30.32,NW,315,0.0,4.2,54,0.00,,,0.00,WUHU21636XXSP,2013-02-28 21:01:00,
2013-02-28 15:11:00,42.6,26.6,30.32,NNW,337,1.3,3.5,54,0.00,,,0.00,WUHU21636XXSP,2013-02-28 21:11:00,
2013-02-28 15:21:00,42.8,27.1,30.32,WNW,292,0.0,2.9,54,0.00,,,0.00,WUHU21636XXSP,2013-02-28 21:21:00,
2013-02-28 15:31:00,43.7,27.5,30.32,WNW,292,0.6,7.8,53,0.00,,,0.00,WUHU21636XXSP,2013-02-28 21:31:00,
2013-02-28 15:41:00,43.3,27.1,30.32,NW,315,0.0,5.1,53,0.00,,,0.00,WUHU21636XXSP,2013-02-28 21:41:00,
2013-02-28 15:51:00,43.3,26.8,30.31,North,0,4.6,4.6,52,0.00,,,0.00,WUHU21636XXSP,2013-02-28 21:51:00,
2013-02-28 16:01:00,42.6,27.0,30.31,NNW,337,4.4,5.1,54,0.00,,,0.00,WUHU21636XXSP,2013-02-28 22:01:00,
2013-02-28 16:11:00,42.4,26.8,30.31,NNW,337,2.0,4.4,56,0.00,,,0.00,WUHU21636XXSP,2013-02-28 22:11:00,
2013-02-28 16:21:00,42.1,26.4,30.31,NNW,337,5.5,5.5,54,0.00,,,0.00,WUHU21636XXSP,2013-02-28 22:21:00,
2013-02-28 16:31:00,42.1,26.4,30.31,NNW,337,4.9,5.5,54,0.00,,,0.00,WUHU21636XXSP,2013-02-28 22:31:00,
2013-02-28 16:41:00,42.1,27.0,30.31,North,0,0.0,4.9,55,0.00,,,0.00,WUHU21636XXSP,2013-02-28 22:41:00,
2013-02-28 16:51:00,41.5,26.8,30.31,North,0,0.4,1.3,56,0.00,,,0.00,WUHU21636XXSP,2013-02-28 22:51:00,
2013-02-28 17:01:00,41.4,26.6,30.31,North,0,0.0,3.5,57,0.00,,,0.00,WUHU21636XXSP,2013-02-28 23:01:00,
2013-02-28 17:11:00,41.2,26.4,30.31,NNW,337,0.0,0.2,56,0.00,,,0.00,WUHU21636XXSP,2013-02-28 23:11:00,
2013-02-28 17:21:00,41.4,27.1,30.31,NNW,337,0.0,0.4,56,0.00,,,0.00,WUHU21636XXSP,2013-02-28 23:21:00,
2013-02-28 17:31:00,40.8,26.6,30.31,North,0,0.0,0.0,57,0.00,,,0.00,WUHU21636XXSP,2013-02-28 23:31:00,
2013-02-28 17:41:00,40.1,25.9,30.31,North,0,0.0,0.0,57,0.00,,,0.00,WUHU21636XXSP,2013-02-28 23:41:00,
2013-02-28 17:51:00,39.7,26.4,30.31,North,0,0.0,0.0,59,0.00,,,0.00,WUHU21636XXSP,2013-02-28 23:51:00,
2013-02-28 18:01:00,39.9,27.1,30.31,North,0,0.0,0.0,60,0.00,,,0.00,WUHU21636XXSP,2013-03-01 00:01:00,
2013-02-28 18:11:00,39.9,27.1,30.31,North,0,0.0,0.0,60,0.00,,,0.00,WUHU21636XXSP,2013-03-01 00:11:00,
2013-02-28 18:21:00,39.6,27.1,30.31,North,0,0.0,0.0,61,0.00,,,0.00,WUHU21636XXSP,2013-03-01 00:21:00,
2013-02-28 18:31:00,39.0,26.6,30.31,North,0,0.0,0.0,62,0.00,,,0.00,WUHU21636XXSP,2013-03-01 00:31:00,
2013-02-28 18:41:00,38.7,27.0,30.31,North,0,0.0,0.0,63,0.00,,,0.00,WUHU21636XXSP,2013-03-01 00:41:00,
2013-02-28 18:51:00,38.3,27.0,30.32,North,0,0.0,0.0,64,0.00,,,0.00,WUHU21636XXSP,2013-03-01 00:51:00,
2013-02-28 19:01:00,37.9,26.8,30.32,North,0,0.0,0.0,64,0.00,,,0.00,WUHU21636XXSP,2013-03-01 01:01:00,
2013-02-28 19:11:00,37.6,26.4,30.32,North,0,0.0,0.0,64,0.00,,,0.00,WUHU21636XXSP,2013-03-01 01:11:00,
2013-02-28 19:21:00,37.2,25.7,30.32,North,0,0.0,0.0,64,0.00,,,0.00,WUHU21636XXSP,2013-03-01 01:21:00,
2013-02-28 19:31:00,36.7,25.5,30.32,North,0,0.0,0.0,64,0.00,,,0.00,WUHU21636XXSP,2013-03-01 01:31:00,
2013-02-28 19:41:00,36.3,25.5,30.32,North,0,0.0,0.0,65,0.00,,,0.00,WUHU21636XXSP,2013-03-01 01:41:00,
2013-02-28 19:51:00,36.0,24.8,30.32,North,0,0.0,0.0,65,0.00,,,0.00,WUHU21636XXSP,2013-03-01 01:51:00,
2013-02-28 20:01:00,35.4,25.2,30.32,North,0,0.0,0.0,66,0.00,,,0.00,WUHU21636XXSP,2013-03-01 02:01:00,
2013-02-28 20:11:00,35.2,25.0,30.32,North,0,0.0,0.0,66,0.00,,,0.00,WUHU21636XXSP,2013-03-01 02:11:00,
2013-02-28 20:21:00,34.9,24.6,30.32,North,0,0.0,0.0,66,0.00,,,0.00,WUHU21636XXSP,2013-03-01 02:21:00,
2013-02-28 20:31:00,34.5,24.3,30.32,North,0,0.0,0.0,67,0.00,,,0.00,WUHU21636XXSP,2013-03-01 02:31:00,
2013-02-28 20:41:00,34.3,24.4,30.32,North,0,0.0,0.0,67,0.00,,,0.00,WUHU21636XXSP,2013-03-01 02:41:00,
2013-02-28 20:51:00,34.0,24.4,30.32,North,0,0.0,0.0,68,0.00,,,0.00,WUHU21636XXSP,2013-03-01 02:51:00,
2013-02-28 21:01:00,33.6,24.1,30.32,North,0,0.0,0.0,68,0.00,,,0.00,WUHU21636XXSP,2013-03-01 03:01:00,
2013-02-28 21:11:00,33.6,24.1,30.32,North,0,0.0,0.0,69,0.00,,,0.00,WUHU21636XXSP,2013-03-01 03:11:00,
2013-02-28 21:21:00,33.4,24.3,30.32,North,0,0.0,0.0,70,0.00,,,0.00,WUHU21636XXSP,2013-03-01 03:21:00,
2013-02-28 21:31:00,33.1,24.3,30.32,North,0,0.0,0.0,70,0.00,,,0.00,WUHU21636XXSP,2013-03-01 03:31:00,
2013-02-28 21:41:00,32.5,23.7,30.32,North,0,0.0,0.0,70,0.00,,,0.00,WUHU21636XXSP,2013-03-01 03:41:00,
2013-02-28 21:51:00,32.2,23.7,30.32,North,0,0.0,0.0,71,0.00,,,0.00,WUHU21636XXSP,2013-03-01 03:51:00,
2013-02-28 22:01:00,31.8,23.7,30.32,North,0,0.0,0.0,72,0.00,,,0.00,WUHU21636XXSP,2013-03-01 04:01:00,
2013-02-28 22:11:00,31.6,23.5,30.32,North,0,0.0,0.0,72,0.00,,,0.00,WUHU21636XXSP,2013-03-01 04:11:00,
2013-02-28 22:21:00,31.3,23.5,30.32,North,0,0.0,0.0,73,0.00,,,0.00,WUHU21636XXSP,2013-03-01 04:21:00,
2013-02-28 22:31:00,31.3,23.5,30.32,NNE,22,0.0,0.0,73,0.00,,,0.00,WUHU21636XXSP,2013-03-01 04:31:00,
2013-02-28 22:41:00,31.1,23.4,30.32,NNE,22,0.0,0.4,74,0.00,,,0.00,WUHU21636XXSP,2013-03-01 04:41:00,
2013-02-28 22:51:00,30.9,23.5,30.32,NNE,22,0.0,0.0,75,0.00,,,0.00,WUHU21636XXSP,2013-03-01 04:51:00,
2013-02-28 23:01:00,30.7,23.7,30.32,NNE,22,0.0,0.0,76,0.00,,,0.00,WUHU21636XXSP,2013-03-01 05:01:00,
2013-02-28 23:11:00,30.6,23.7,30.32,NNE,22,0.0,0.0,76,0.00,,,0.00,WUHU21636XXSP,2013-03-01 05:11:00,
2013-02-28 23:21:00,30.4,23.5,30.33,NNE,22,0.0,0.0,76,0.00,,,0.00,WUHU21636XXSP,2013-03-01 05:21:00,
2013-02-28 23:31:00,30.0,23.2,30.34,NNE,22,0.0,0.0,77,0.00,,,0.00,WUHU21636XXSP,2013-03-01 05:31:00,
2013-02-28 23:41:00,30.0,23.2,30.33,NNE,22,0.0,1.5,77,0.00,,,0.00,WUHU21636XXSP,2013-03-01 05:41:00,
2013-02-28 23:51:00,29.8,23.4,30.34,NNE,22,0.0,0.0,77,0.00,,,0.00,WUHU21636XXSP,2013-03-01 05:51:00,